Terminal Aerodrome Forecast
Issued by NWS

Home | Current Version | Previous Version | Text Only | Print | Product List | Glossary On
Versions: 1 2 3 4 5 6 7 8 9 10 11 12 13 14 15 16 17 18
000
FTUS46 KSEW 191757
TAFHQM
TAF
KHQM 191757Z 1918/2018 14018G24KT 4SM -RA BR BKN015 OVC040
      WS020/20060KT
     FM192200 18023G40KT 3SM RA BR OVC015
     FM200500 20014KT 6SM -SHRA BKN015 OVC025
     FM201000 26006KT P6SM -SHRA BKN015 OVC025
     FM201600 23004KT P6SM SCT014 SCT030=

USA.gov is the U.S. government's official web portal to all federal, state and local government web resources and services.